createdAt,value
2022-08-16T00:01:24.526Z,79.73
2022-08-16T00:03:53.144Z,78.53
2022-08-16T00:06:20.824Z,79.40
2022-08-16T00:08:48.187Z,79.23
2022-08-16T00:11:16.762Z,79.98
2022-08-16T00:13:53.465Z,79.80
2022-08-16T00:17:06.162Z,79.66
2022-08-16T00:19:41.695Z,79.46
2022-08-16T00:22:13.751Z,80.27
2022-08-16T00:24:46.804Z,81.19
2022-08-16T00:27:15.033Z,81.46
2022-08-16T00:29:42.308Z,82.49
2022-08-16T00:32:11.104Z,82.09
2022-08-16T00:34:43.195Z,81.70
2022-08-16T00:37:20.477Z,81.23
2022-08-16T00:39:56.862Z,82.13
2022-08-16T00:42:31.961Z,81.97
2022-08-16T00:45:25.470Z,81.84
2022-08-16T00:47:55.099Z,81.98
2022-08-16T00:50:36.102Z,81.48
2022-08-16T00:53:06.918Z,82.16
2022-08-16T00:55:38.285Z,82.29
2022-08-16T00:58:13.263Z,81.91
2022-08-16T01:00:45.512Z,82.15
2022-08-16T01:03:30.390Z,82.54
2022-08-16T01:05:59.343Z,82.75
2022-08-16T01:08:35.464Z,82.97
2022-08-16T01:11:05.492Z,82.32
2022-08-16T01:13:36.397Z,81.45
2022-08-16T01:16:10.165Z,82.47
2022-08-16T01:18:47.463Z,81.55
2022-08-16T01:22:47.049Z,83.40
2022-08-16T01:24:57.544Z,82.63
2022-08-16T01:27:36.941Z,83.02
2022-08-16T01:30:28.920Z,83.15
2022-08-16T01:33:14.042Z,82.42
2022-08-16T01:35:54.211Z,83.02
2022-08-16T01:38:35.219Z,82.91
2022-08-16T01:41:29.712Z,83.58
2022-08-16T01:44:00.937Z,83.67
2022-08-16T01:46:46.642Z,83.77
2022-08-16T01:49:20.068Z,84.18
2022-08-16T01:51:57.931Z,84.12
2022-08-16T01:54:30.638Z,85.42
2022-08-16T01:56:59.552Z,84.98
2022-08-16T01:59:27.116Z,84.49
2022-08-16T02:02:00.176Z,84.02
2022-08-16T02:04:40.007Z,84.75
2022-08-16T02:07:18.721Z,86.74
2022-08-16T02:09:58.357Z,86.47
2022-08-16T02:12:49.482Z,86.44
2022-08-16T02:15:25.293Z,85.67
2022-08-16T02:17:58.343Z,85.01
2022-08-16T02:20:28.437Z,85.77
2022-08-16T02:23:05.571Z,84.64
2022-08-16T02:25:51.237Z,85.99
2022-08-16T02:28:23.718Z,84.70
2022-08-16T02:30:52.465Z,84.90
2022-08-16T02:33:24.367Z,85.90
2022-08-16T02:36:14.559Z,87.40
2022-08-16T02:38:57.194Z,87.56
2022-08-16T02:41:24.059Z,87.23
2022-08-16T02:43:53.468Z,86.68
2022-08-16T02:46:20.938Z,85.71
2022-08-16T02:49:01.978Z,84.97
2022-08-16T02:51:29.042Z,85.16
2022-08-16T02:53:58.528Z,84.45
2022-08-16T02:56:25.971Z,84.48
2022-08-16T02:58:59.550Z,84.32
2022-08-16T03:01:36.532Z,85.25
2022-08-16T03:04:39.223Z,84.79
2022-08-16T03:06:56.374Z,84.49
2022-08-16T03:09:25.294Z,84.11
2022-08-16T03:11:56.141Z,83.94
2022-08-16T03:14:24.493Z,84.12
2022-08-16T03:16:59.411Z,83.40
2022-08-16T03:19:47.876Z,83.38
2022-08-16T03:22:28.856Z,83.32
2022-08-16T03:25:04.466Z,83.63
2022-08-16T03:27:38.945Z,83.49
2022-08-16T03:30:16.488Z,83.46
2022-08-16T03:32:47.237Z,85.16
2022-08-16T03:35:18.554Z,85.59
2022-08-16T03:38:01.803Z,86.19
2022-08-16T03:40:33.835Z,87.74
2022-08-16T03:43:20.237Z,88.19
2022-08-16T03:45:49.461Z,87.92
2022-08-16T03:48:21.316Z,87.61
2022-08-16T03:51:08.549Z,88.05
2022-08-16T03:53:38.355Z,87.93
2022-08-16T03:56:07.631Z,88.92
2022-08-16T03:58:45.766Z,89.07
2022-08-16T04:01:15.506Z,89.31
2022-08-16T04:03:43.248Z,88.23
2022-08-16T04:06:11.219Z,87.39
2022-08-16T04:08:39.525Z,87.13
2022-08-16T04:11:07.216Z,87.48
2022-08-16T04:14:00.192Z,87.32
2022-08-16T04:16:27.720Z,86.14
2022-08-16T04:19:02.372Z,84.78
2022-08-16T04:21:32.941Z,84.31
2022-08-16T04:24:00.835Z,83.54
2022-08-16T04:26:30.801Z,82.87
2022-08-16T04:29:14.801Z,82.06
2022-08-16T04:31:56.220Z,80.66
2022-08-16T04:34:28.679Z,80.28
2022-08-16T04:36:57.977Z,80.27
2022-08-16T04:39:36.527Z,80.72
2022-08-16T04:42:15.523Z,80.40
2022-08-16T04:44:53.892Z,80.01
2022-08-16T04:47:31.438Z,80.62
2022-08-16T04:49:59.915Z,80.30
2022-08-16T04:52:35.147Z,80.29
2022-08-16T04:55:15.210Z,79.83
2022-08-16T04:57:43.790Z,79.73
2022-08-16T05:00:32.271Z,78.39
2022-08-16T05:03:11.431Z,77.75
2022-08-16T05:05:45.382Z,77.00
2022-08-16T05:08:30.544Z,77.16
2022-08-16T05:11:03.649Z,76.91
2022-08-16T05:13:41.471Z,77.51
2022-08-16T05:16:27.523Z,77.47
2022-08-16T05:19:00.735Z,77.61
2022-08-16T05:21:38.345Z,77.19
2022-08-16T05:24:07.707Z,76.99
2022-08-16T05:26:42.960Z,76.04
2022-08-16T05:29:15.261Z,75.97
2022-08-16T05:31:47.971Z,75.62
2022-08-16T05:34:21.409Z,73.94
2022-08-16T05:36:51.178Z,72.03
2022-08-16T05:39:20.483Z,70.31
2022-08-16T05:41:48.977Z,68.92
2022-08-16T05:44:23.102Z,67.72
2022-08-16T05:46:56.004Z,66.30
2022-08-16T05:49:24.357Z,66.93
2022-08-16T05:51:54.820Z,63.56
2022-08-16T05:54:24.989Z,62.81
2022-08-16T05:56:54.276Z,61.04
2022-08-16T05:59:24.150Z,60.66
2022-08-16T06:01:52.231Z,57.96
2022-08-16T06:04:34.826Z,55.93
2022-08-16T06:07:09.019Z,51.98
2022-08-16T06:09:51.394Z,51.54
2022-08-16T06:12:26.744Z,51.39
2022-08-16T06:15:04.494Z,53.46
2022-08-16T06:17:43.126Z,55.58
2022-08-16T06:20:23.432Z,55.91
2022-08-16T06:22:59.007Z,56.29
2022-08-16T06:25:35.890Z,54.72
2022-08-16T06:28:09.537Z,49.94
2022-08-16T06:30:43.548Z,47.41
2022-08-16T06:33:22.170Z,43.16
2022-08-16T06:35:55.287Z,38.82
2022-08-16T06:38:33.305Z,36.02
2022-08-16T06:41:06.570Z,38.01
2022-08-16T06:43:41.712Z,42.77
2022-08-16T06:46:31.559Z,45.62
2022-08-16T06:48:59.332Z,48.15
2022-08-16T06:51:48.375Z,50.70
2022-08-16T06:54:14.269Z,52.21
2022-08-16T06:56:42.408Z,53.38
2022-08-16T06:59:10.298Z,53.83
2022-08-16T07:01:46.330Z,54.33
2022-08-16T07:04:31.661Z,56.37
2022-08-16T07:07:01.721Z,57.22
2022-08-16T07:09:30.620Z,55.88
2022-08-16T07:12:03.371Z,54.31
2022-08-16T07:14:31.717Z,50.43
2022-08-16T07:16:59.830Z,48.14
2022-08-16T07:20:04.116Z,49.57
2022-08-16T07:22:37.117Z,47.11
2022-08-16T07:25:11.797Z,49.65
2022-08-16T07:27:40.319Z,48.07
2022-08-16T07:30:46.122Z,47.80
2022-08-16T07:33:00.336Z,45.82
2022-08-16T07:35:27.510Z,45.85
2022-08-16T07:37:54.769Z,46.15
2022-08-16T07:40:36.946Z,43.37
2022-08-16T07:43:09.674Z,39.22
2022-08-16T07:45:36.812Z,36.16
2022-08-16T07:48:11.221Z,33.58
2022-08-16T07:50:56.563Z,31.21
2022-08-16T07:53:31.712Z,28.30
2022-08-16T07:56:00.505Z,27.70
2022-08-16T07:58:33.789Z,26.39
2022-08-16T08:01:11.053Z,26.63
2022-08-16T08:03:48.212Z,28.94
2022-08-16T08:06:22.756Z,35.32
2022-08-16T08:08:57.577Z,35.27
2022-08-16T08:11:28.817Z,35.72
2022-08-16T08:14:03.794Z,38.53
2022-08-16T08:16:32.950Z,38.79
2022-08-16T08:19:02.845Z,35.79
2022-08-16T08:21:56.633Z,32.09
2022-08-16T08:24:21.360Z,28.09
2022-08-16T08:26:50.147Z,26.17
2022-08-16T08:29:23.064Z,24.12
2022-08-16T08:31:52.985Z,22.40
2022-08-16T08:34:21.122Z,22.10
2022-08-16T08:36:54.039Z,21.80
2022-08-16T08:39:21.750Z,21.57
2022-08-16T08:41:49.426Z,22.66
2022-08-16T08:44:28.648Z,23.85
2022-08-16T08:47:04.741Z,22.45
2022-08-16T08:49:46.828Z,20.47
2022-08-16T08:52:35.137Z,18.59
2022-08-16T08:55:11.223Z,19.50
2022-08-16T08:57:46.817Z,19.12
2022-08-16T09:00:18.422Z,18.66
2022-08-16T09:02:52.073Z,19.14
2022-08-16T09:05:22.936Z,18.70
2022-08-16T09:08:05.871Z,18.51
2022-08-16T09:10:33.758Z,16.60
2022-08-16T09:13:01.419Z,15.69
2022-08-16T09:15:32.556Z,16.50
2022-08-16T09:18:26.635Z,16.72
2022-08-16T09:21:00.163Z,17.42
2022-08-16T09:23:36.305Z,15.70
2022-08-16T09:26:44.142Z,16.26
2022-08-16T09:29:15.187Z,15.00
2022-08-16T09:31:42.152Z,14.27
2022-08-16T09:34:10.496Z,13.93
2022-08-16T09:36:45.950Z,13.39
2022-08-16T09:39:15.784Z,13.42
2022-08-16T09:41:54.272Z,13.76
2022-08-16T09:45:10.597Z,15.26
2022-08-16T09:47:13.565Z,16.94
2022-08-16T09:49:41.346Z,19.14
2022-08-16T09:52:10.315Z,22.80
2022-08-16T09:54:44.443Z,20.29
2022-08-16T09:57:12.471Z,21.55
2022-08-16T09:59:41.994Z,26.49
2022-08-16T10:02:23.006Z,27.57
2022-08-16T10:04:56.705Z,28.38
2022-08-16T10:07:38.339Z,26.31
2022-08-16T10:10:31.076Z,20.22
2022-08-16T10:13:16.673Z,17.38
2022-08-16T10:15:55.780Z,15.85
2022-08-16T10:18:54.110Z,15.24
2022-08-16T10:21:17.943Z,14.62
2022-08-16T10:23:46.275Z,15.70
2022-08-16T10:27:18.069Z,17.74
2022-08-16T10:29:01.747Z,19.59
2022-08-16T10:31:43.650Z,20.39
2022-08-16T10:34:30.785Z,25.35
2022-08-16T10:37:00.138Z,26.07
2022-08-16T10:39:40.783Z,26.70
2022-08-16T10:42:13.629Z,28.88
2022-08-16T10:44:42.289Z,30.67
2022-08-16T10:47:10.246Z,32.11
2022-08-16T10:49:39.079Z,32.87
2022-08-16T10:52:17.986Z,34.12
2022-08-16T10:57:33.329Z,36.31
2022-08-16T11:00:22.417Z,36.67
2022-08-16T11:02:57.739Z,36.63
2022-08-16T11:05:59.168Z,39.65
2022-08-16T11:08:17.376Z,38.58
2022-08-16T11:11:04.856Z,37.85
2022-08-16T11:19:12.632Z,39.21
2022-08-16T11:24:40.039Z,39.96
2022-08-16T11:27:19.751Z,39.86
2022-08-16T11:29:52.009Z,39.69
2022-08-16T11:32:20.295Z,40.39
2022-08-16T11:35:11.002Z,40.48
2022-08-16T11:38:24.078Z,40.14
2022-08-16T11:40:32.418Z,40.31
2022-08-16T11:43:01.498Z,40.82
2022-08-16T11:45:33.478Z,41.54
2022-08-16T11:48:05.126Z,40.78
2022-08-16T11:50:33.668Z,40.53
2022-08-16T11:53:05.660Z,39.85
2022-08-16T11:55:38.209Z,40.83
2022-08-16T11:58:08.313Z,41.60
2022-08-16T12:00:51.922Z,41.46
2022-08-16T12:03:31.446Z,41.63
2022-08-16T12:06:11.204Z,42.05
2022-08-16T12:08:57.379Z,42.17
2022-08-16T12:11:28.116Z,42.38
2022-08-16T12:14:04.695Z,42.86
2022-08-16T12:16:34.440Z,43.00
2022-08-16T12:19:04.635Z,43.34
2022-08-16T12:21:36.059Z,43.30
2022-08-16T12:24:20.770Z,43.18
2022-08-16T12:26:48.497Z,42.03
2022-08-16T12:29:16.476Z,41.96
2022-08-16T12:32:00.839Z,41.83
2022-08-16T12:34:30.277Z,41.57
2022-08-16T12:36:58.625Z,41.13
2022-08-16T12:39:29.075Z,40.53
2022-08-16T12:41:56.713Z,40.23
2022-08-16T12:44:26.311Z,40.07
2022-08-16T12:47:17.094Z,39.72
2022-08-16T12:49:44.068Z,39.85
2022-08-16T12:52:33.656Z,40.16
2022-08-16T12:55:00.707Z,40.39
2022-08-16T12:57:36.324Z,40.35
2022-08-16T13:00:26.499Z,40.14
2022-08-16T13:02:54.505Z,41.62
2022-08-16T13:05:22.262Z,42.49
2022-08-16T13:07:51.320Z,42.17
2022-08-16T13:10:37.262Z,41.96
2022-08-16T13:13:06.919Z,41.13
2022-08-16T13:15:51.517Z,40.63
2022-08-16T13:18:32.540Z,40.52
2022-08-16T13:21:00.729Z,40.81
2022-08-16T13:23:27.705Z,40.36
2022-08-16T13:25:57.259Z,40.60
2022-08-16T13:28:24.551Z,40.81
2022-08-16T13:30:55.101Z,40.02
2022-08-16T13:33:37.859Z,40.03
2022-08-16T13:36:17.022Z,39.14
2022-08-16T13:38:53.179Z,39.36
2022-08-16T13:41:21.393Z,38.47
2022-08-16T13:43:55.099Z,38.56
2022-08-16T13:46:25.633Z,38.15
2022-08-16T13:48:53.447Z,38.42
2022-08-16T13:51:23.843Z,38.79
2022-08-16T13:54:02.624Z,38.15
2022-08-16T13:56:36.813Z,39.03
2022-08-16T13:59:13.913Z,38.94
2022-08-16T14:01:55.367Z,38.88
2022-08-16T14:04:27.585Z,39.10
2022-08-16T14:06:57.126Z,39.48
2022-08-16T14:09:25.254Z,38.86
2022-08-16T14:11:54.706Z,38.27
2022-08-16T14:14:28.697Z,38.09
2022-08-16T14:17:01.606Z,38.66
2022-08-16T14:19:30.022Z,38.81
2022-08-16T14:22:14.674Z,39.12
2022-08-16T14:24:47.426Z,38.86
2022-08-16T14:27:21.835Z,38.15
2022-08-16T14:29:50.714Z,37.99
2022-08-16T14:32:33.581Z,37.25
2022-08-16T14:35:08.368Z,38.06
2022-08-16T14:37:38.178Z,38.03
2022-08-16T14:40:08.175Z,37.27
2022-08-16T14:42:36.780Z,37.61
2022-08-16T14:45:10.123Z,37.34
2022-08-16T14:47:38.324Z,36.64
2022-08-16T14:50:09.069Z,36.75
2022-08-16T14:52:58.278Z,36.80
2022-08-16T14:55:27.950Z,37.74
2022-08-16T14:57:55.805Z,37.79
2022-08-16T15:00:33.212Z,37.80
2022-08-16T15:03:09.796Z,37.53
2022-08-16T15:05:39.299Z,37.13
2022-08-16T15:08:06.266Z,37.74
2022-08-16T15:10:37.329Z,37.28
2022-08-16T15:13:09.608Z,37.77
2022-08-16T15:15:38.456Z,36.91
2022-08-16T15:18:11.776Z,36.59
2022-08-16T15:20:41.342Z,37.25
2022-08-16T15:23:10.009Z,36.67
2022-08-16T15:25:44.807Z,36.50
2022-08-16T15:28:30.918Z,36.58
2022-08-16T15:31:03.374Z,36.66
2022-08-16T15:33:35.067Z,36.79
2022-08-16T15:36:04.698Z,37.51
2022-08-16T15:38:56.981Z,37.38
2022-08-16T15:41:49.577Z,37.46
2022-08-16T15:44:22.670Z,37.26
2022-08-16T15:47:00.037Z,37.77
2022-08-16T15:49:37.177Z,37.45
2022-08-16T15:52:24.869Z,37.79
2022-08-16T15:55:13.414Z,37.99
2022-08-16T15:57:51.341Z,38.02
2022-08-16T16:00:20.608Z,37.62
2022-08-16T16:02:49.606Z,37.81
2022-08-16T16:05:16.986Z,37.62
2022-08-16T16:07:56.254Z,37.80
2022-08-16T16:10:29.347Z,38.23
2022-08-16T16:13:00.457Z,38.04
2022-08-16T16:15:32.348Z,37.41
2022-08-16T16:17:59.622Z,37.36
2022-08-16T16:20:39.012Z,36.95
2022-08-16T16:23:10.605Z,36.98
2022-08-16T16:25:44.028Z,37.46
2022-08-16T16:29:05.039Z,38.06
2022-08-16T16:31:09.018Z,38.27
2022-08-16T16:33:39.779Z,37.72
2022-08-16T16:36:08.390Z,38.17
2022-08-16T16:38:35.540Z,37.73
2022-08-16T16:41:09.380Z,38.44
2022-08-16T16:43:40.784Z,38.19
2022-08-16T16:46:43.005Z,38.38
2022-08-16T16:48:56.545Z,37.93
2022-08-16T16:51:24.443Z,37.90
2022-08-16T16:53:56.537Z,37.79
2022-08-16T16:56:32.238Z,38.13
2022-08-16T16:59:07.743Z,37.98
2022-08-16T17:02:00.040Z,38.75
2022-08-16T17:04:32.982Z,38.60
2022-08-16T17:07:01.867Z,38.62
2022-08-16T17:09:29.693Z,38.15
2022-08-16T17:11:58.313Z,38.32
2022-08-16T17:14:33.235Z,38.70
2022-08-16T17:17:06.397Z,38.66
2022-08-16T17:19:40.062Z,38.95
2022-08-16T17:22:14.273Z,38.60
2022-08-16T17:24:50.933Z,38.57
2022-08-16T17:27:33.176Z,38.98
2022-08-16T17:30:19.297Z,38.78
2022-08-16T17:32:56.742Z,39.09
2022-08-16T17:35:40.999Z,38.70
2022-08-16T17:38:10.417Z,38.68
2022-08-16T17:40:47.983Z,38.95
2022-08-16T17:43:33.149Z,38.97
2022-08-16T17:46:01.429Z,40.28
2022-08-16T17:48:31.065Z,40.78
2022-08-16T17:50:59.428Z,40.70
2022-08-16T17:53:26.372Z,40.63
2022-08-16T17:55:54.581Z,40.69
2022-08-16T17:58:24.118Z,41.15
2022-08-16T18:00:55.857Z,41.55
2022-08-16T18:04:08.958Z,41.70
2022-08-16T18:06:28.942Z,42.22
2022-08-16T18:09:02.518Z,41.82
2022-08-16T18:11:33.937Z,42.12
2022-08-16T18:14:00.943Z,41.93
2022-08-16T18:16:27.787Z,41.94
2022-08-16T18:18:54.665Z,42.29
2022-08-16T18:21:40.942Z,42.48
2022-08-16T18:24:09.841Z,43.14
2022-08-16T18:26:37.676Z,43.22
2022-08-16T18:29:05.045Z,43.32
2022-08-16T18:31:32.502Z,43.62
2022-08-16T18:34:01.173Z,43.53
2022-08-16T18:36:28.161Z,43.32
2022-08-16T18:38:55.345Z,43.97
2022-08-16T18:41:25.167Z,43.46
2022-08-16T18:44:22.401Z,44.05
2022-08-16T18:46:45.642Z,43.99
2022-08-16T18:49:17.995Z,44.44
2022-08-16T18:51:45.340Z,44.31
2022-08-16T18:54:17.841Z,44.58
2022-08-16T18:56:55.478Z,44.58
2022-08-16T18:59:27.497Z,44.80
2022-08-16T19:01:55.524Z,44.87
2022-08-16T19:04:47.553Z,45.03
2022-08-16T19:07:15.061Z,45.36
2022-08-16T19:09:41.958Z,45.47
2022-08-16T19:12:09.272Z,45.35
2022-08-16T19:14:36.141Z,45.47
2022-08-16T19:17:03.062Z,45.69
2022-08-16T19:19:29.916Z,45.65
2022-08-16T19:21:57.402Z,45.62
2022-08-16T19:24:28.254Z,45.90
2022-08-16T19:26:57.122Z,45.88
2022-08-16T19:29:24.623Z,45.94
2022-08-16T19:31:51.507Z,46.36
2022-08-16T19:34:18.434Z,46.05
2022-08-16T19:36:45.398Z,46.55
2022-08-16T19:39:15.145Z,46.75
2022-08-16T19:41:53.233Z,46.85
2022-08-16T19:44:22.312Z,47.07
2022-08-16T19:46:49.808Z,47.71
2022-08-16T19:49:17.179Z,47.74
2022-08-16T19:51:45.942Z,47.51
2022-08-16T19:54:12.853Z,47.13
2022-08-16T19:56:39.748Z,47.10
2022-08-16T19:59:40.321Z,47.09
2022-08-16T20:01:53.532Z,46.87
2022-08-16T20:04:22.615Z,46.67
2022-08-16T20:06:52.627Z,46.97
2022-08-16T20:09:21.735Z,46.99
2022-08-16T20:11:49.780Z,47.16
2022-08-16T20:14:24.114Z,47.60
2022-08-16T20:16:57.865Z,47.94
2022-08-16T20:19:27.377Z,47.88
2022-08-16T20:21:56.386Z,48.28
2022-08-16T20:24:34.051Z,48.69
2022-08-16T20:27:03.171Z,48.79
2022-08-16T20:29:30.089Z,48.92
2022-08-16T20:31:56.988Z,49.13
2022-08-16T20:34:23.860Z,48.91
2022-08-16T20:36:50.720Z,48.89
2022-08-16T20:39:17.596Z,48.54
2022-08-16T20:41:44.565Z,48.34
2022-08-16T20:44:12.928Z,48.34
2022-08-16T20:46:40.241Z,47.28
2022-08-16T20:49:09.207Z,47.27
2022-08-16T20:51:49.749Z,47.15
2022-08-16T20:54:18.112Z,47.29
2022-08-16T20:56:45.013Z,47.24
2022-08-16T20:59:11.893Z,47.61
2022-08-16T21:01:46.281Z,47.45
2022-08-16T21:04:23.186Z,47.55
2022-08-16T21:06:52.952Z,47.97
2022-08-16T21:09:20.356Z,47.90
2022-08-16T21:11:53.182Z,48.35
2022-08-16T21:14:20.070Z,48.41
2022-08-16T21:16:46.921Z,48.21
2022-08-16T21:19:13.791Z,48.29
2022-08-16T21:21:40.685Z,48.38
2022-08-16T21:24:07.760Z,48.42
2022-08-16T21:26:39.010Z,48.51
2022-08-16T21:29:11.239Z,48.67
2022-08-16T21:31:42.521Z,48.86
2022-08-16T21:34:09.427Z,49.11
2022-08-16T21:36:36.771Z,49.61
2022-08-16T21:39:06.846Z,49.12
2022-08-16T21:41:35.557Z,49.00
2022-08-16T21:44:02.594Z,49.27
2022-08-16T21:46:29.461Z,49.23
2022-08-16T21:48:56.495Z,49.77
2022-08-16T21:51:23.403Z,50.06
2022-08-16T21:53:50.344Z,50.16
2022-08-16T21:56:17.680Z,50.54
2022-08-16T21:58:53.201Z,50.93
2022-08-16T22:01:24.041Z,51.20
2022-08-16T22:04:09.655Z,51.06
2022-08-16T22:06:40.746Z,51.61
2022-08-16T22:09:09.801Z,51.84
2022-08-16T22:11:37.786Z,52.53
2022-08-16T22:14:05.437Z,52.84
2022-08-16T22:16:36.251Z,53.08
2022-08-16T22:19:04.471Z,52.79
2022-08-16T22:21:32.900Z,53.39
2022-08-16T22:24:00.149Z,54.00
2022-08-16T22:26:30.386Z,54.08
2022-08-16T22:29:04.375Z,54.00
2022-08-16T22:31:31.313Z,55.25
2022-08-16T22:33:58.634Z,54.91
2022-08-16T22:36:28.629Z,54.88
2022-08-16T22:39:05.817Z,55.17
2022-08-16T22:41:35.260Z,54.75
2022-08-16T22:44:04.805Z,54.16
2022-08-16T22:46:34.753Z,53.93
2022-08-16T22:49:02.522Z,53.69
2022-08-16T22:51:30.269Z,54.16
2022-08-16T22:53:58.281Z,53.67
2022-08-16T22:56:25.920Z,53.56
2022-08-16T22:58:53.240Z,53.61
2022-08-16T23:01:23.675Z,53.79
2022-08-16T23:03:51.357Z,54.05
2022-08-16T23:06:18.721Z,54.25
2022-08-16T23:08:45.601Z,54.37
2022-08-16T23:11:20.968Z,55.07
2022-08-16T23:13:57.514Z,55.20
2022-08-16T23:16:34.282Z,55.64
2022-08-16T23:19:05.807Z,55.94
2022-08-16T23:21:33.830Z,56.37
2022-08-16T23:24:01.205Z,56.54
2022-08-16T23:26:44.873Z,56.32
2022-08-16T23:29:23.535Z,56.31
2022-08-16T23:31:57.979Z,56.30
2022-08-16T23:34:27.334Z,56.05
2022-08-16T23:36:54.754Z,56.10
2022-08-16T23:39:22.611Z,56.43
2022-08-16T23:41:49.663Z,56.16
2022-08-16T23:44:42.347Z,56.82
2022-08-16T23:47:05.871Z,57.22
2022-08-16T23:49:56.466Z,57.40
2022-08-16T23:52:53.850Z,57.53
2022-08-16T23:55:07.591Z,58.51
2022-08-16T23:57:34.472Z,59.54
